createdAt,value
2023-05-14T00:01:08.186Z,9.18
2023-05-14T00:08:26.420Z,9.07
2023-05-14T00:15:46.212Z,8.40
2023-05-14T00:23:04.400Z,8.32
2023-05-14T00:30:22.775Z,9.43
2023-05-14T00:37:43.461Z,8.80
2023-05-14T00:45:01.877Z,8.85
2023-05-14T00:52:20.132Z,9.05
2023-05-14T00:59:42.690Z,8.82
2023-05-14T01:07:10.168Z,8.70
2023-05-14T01:14:34.337Z,8.27
2023-05-14T01:21:54.019Z,7.93
2023-05-14T01:29:15.606Z,7.38
2023-05-14T01:36:34.187Z,6.80
2023-05-14T01:43:54.084Z,6.70
2023-05-14T01:51:14.754Z,6.55
2023-05-14T01:58:33.339Z,6.40
2023-05-14T02:05:53.424Z,6.45
2023-05-14T02:13:11.663Z,6.43
2023-05-14T02:20:29.967Z,6.03
2023-05-14T02:27:49.648Z,6.47
2023-05-14T02:35:09.167Z,6.90
2023-05-14T02:42:27.317Z,7.05
2023-05-14T02:49:46.868Z,7.90
2023-05-14T02:57:05.323Z,8.40
2023-05-14T03:04:23.732Z,8.25
2023-05-14T03:11:43.545Z,8.77
2023-05-14T03:19:01.737Z,8.25
2023-05-14T03:26:21.722Z,9.32
2023-05-14T03:33:41.411Z,9.20
2023-05-14T03:40:59.614Z,10.70
2023-05-14T03:48:18.321Z,9.85
2023-05-14T03:55:38.173Z,9.85
2023-05-14T04:02:56.474Z,9.30
2023-05-14T04:10:15.587Z,8.95
2023-05-14T04:17:35.558Z,8.93
2023-05-14T04:24:53.735Z,9.73
2023-05-14T04:32:12.490Z,9.48
2023-05-14T04:39:32.205Z,10.00
2023-05-14T04:46:50.503Z,9.98
2023-05-14T04:54:08.858Z,9.63
2023-05-14T05:01:28.577Z,10.50
2023-05-14T05:08:46.760Z,8.25
2023-05-14T05:16:05.527Z,8.70
2023-05-14T05:23:25.265Z,8.93
2023-05-14T05:30:45.225Z,8.70
2023-05-14T05:38:04.061Z,8.60
2023-05-14T05:45:24.090Z,7.93
2023-05-14T05:52:42.436Z,7.90
2023-05-14T06:00:01.155Z,7.18
2023-05-14T06:07:21.345Z,7.40
2023-05-14T06:14:39.602Z,7.07
2023-05-14T06:21:57.828Z,7.05
2023-05-14T06:29:17.487Z,6.30
2023-05-14T06:36:35.780Z,6.15
2023-05-14T06:43:54.035Z,5.40
2023-05-14T06:51:14.496Z,4.60
2023-05-14T06:58:32.750Z,4.68
2023-05-14T07:05:52.022Z,3.88
2023-05-14T07:13:11.589Z,2.67
2023-05-14T07:20:29.735Z,2.20
2023-05-14T07:27:47.864Z,2.42
2023-05-14T07:35:08.583Z,2.72
2023-05-14T07:42:35.815Z,2.30
2023-05-14T07:49:56.540Z,1.98
2023-05-14T07:57:16.631Z,1.90
2023-05-14T08:04:36.151Z,2.10
2023-05-14T08:11:54.424Z,2.28
2023-05-14T08:19:14.586Z,2.58
2023-05-14T08:26:32.888Z,1.98
2023-05-14T08:33:51.053Z,2.35
2023-05-14T08:41:11.696Z,2.22
2023-05-14T08:48:34.313Z,1.83
2023-05-14T09:03:12.797Z,1.73
2023-05-14T09:10:32.029Z,2.15
2023-05-14T09:17:50.499Z,2.10
2023-05-14T09:25:12.447Z,1.77
2023-05-14T09:32:36.935Z,1.73
2023-05-14T09:39:55.040Z,1.73
2023-05-14T09:47:16.327Z,1.90
2023-05-14T09:54:34.746Z,1.50
2023-05-14T10:01:54.381Z,1.55
2023-05-14T10:09:14.875Z,1.33
2023-05-14T10:16:35.659Z,1.38
2023-05-14T10:23:54.081Z,1.50
2023-05-14T10:31:14.185Z,1.70
2023-05-14T10:38:34.845Z,1.65
2023-05-14T10:45:53.559Z,1.50
2023-05-14T10:53:14.451Z,1.85
2023-05-14T11:00:34.709Z,1.45
2023-05-14T11:07:53.993Z,1.17
2023-05-14T11:15:15.141Z,1.30
2023-05-14T11:22:33.293Z,1.10
2023-05-14T11:29:51.756Z,1.60
2023-05-14T11:37:12.727Z,1.48
2023-05-14T11:44:30.956Z,1.45
2023-05-14T11:51:49.089Z,1.45
2023-05-14T11:59:08.701Z,2.28
2023-05-14T12:06:32.002Z,1.55
2023-05-14T12:13:50.081Z,2.10
2023-05-14T12:21:10.075Z,1.60
2023-05-14T12:28:28.876Z,1.58
2023-05-14T12:35:47.091Z,1.67
2023-05-14T12:43:07.871Z,1.83
2023-05-14T12:50:26.382Z,2.03
2023-05-14T12:57:44.667Z,2.47
2023-05-14T13:05:04.465Z,2.65
2023-05-14T13:12:22.706Z,2.92
2023-05-14T13:19:40.894Z,3.25
2023-05-14T13:27:00.330Z,3.58
2023-05-14T13:34:18.583Z,2.90
2023-05-14T13:41:38.423Z,3.15
2023-05-14T13:48:57.952Z,3.13
2023-05-14T13:56:16.075Z,3.03
2023-05-14T14:03:34.221Z,3.40
2023-05-14T14:10:55.422Z,4.18
2023-05-14T14:18:13.701Z,3.83
2023-05-14T14:25:31.878Z,4.15
2023-05-14T14:32:51.638Z,4.53
2023-05-14T14:40:12.131Z,3.65
2023-05-14T14:47:30.706Z,3.97
2023-05-14T14:54:50.399Z,3.45
2023-05-14T15:02:10.391Z,3.85
2023-05-14T15:09:28.747Z,4.25
2023-05-14T15:16:50.823Z,3.38
2023-05-14T15:24:12.821Z,3.20
2023-05-14T15:31:31.245Z,3.72
2023-05-14T15:38:51.354Z,3.95
2023-05-14T15:46:09.560Z,3.85
2023-05-14T15:53:27.775Z,4.93
2023-05-14T16:00:47.615Z,4.95
2023-05-14T16:08:06.419Z,4.47
2023-05-14T16:15:25.103Z,4.55
2023-05-14T16:22:44.941Z,4.28
2023-05-14T16:30:03.247Z,5.20
2023-05-14T16:37:21.901Z,5.60
2023-05-14T16:44:41.521Z,5.72
2023-05-14T16:51:59.669Z,5.05
2023-05-14T16:59:18.313Z,4.85
2023-05-14T17:06:38.074Z,6.45
2023-05-14T17:13:56.248Z,5.63
2023-05-14T17:21:14.429Z,4.40
2023-05-14T17:28:34.077Z,5.85
2023-05-14T17:35:52.693Z,7.85
2023-05-14T17:43:11.243Z,7.75
2023-05-14T17:50:31.018Z,6.30
2023-05-14T17:57:49.238Z,6.15
2023-05-14T18:05:08.204Z,5.53
2023-05-14T18:12:28.023Z,5.78
2023-05-14T18:19:46.184Z,5.70
2023-05-14T18:27:04.484Z,6.03
2023-05-14T18:34:24.127Z,6.07
2023-05-14T18:41:42.504Z,5.53
2023-05-14T18:49:00.750Z,5.50
2023-05-14T18:56:21.494Z,5.75
2023-05-14T19:03:41.831Z,6.22
2023-05-14T19:11:00.335Z,5.65
2023-05-14T19:18:20.225Z,5.53
2023-05-14T19:25:39.113Z,6.13
2023-05-14T19:32:57.574Z,21.10
2023-05-14T19:40:17.499Z,6.80
2023-05-14T19:47:36.120Z,5.22
2023-05-14T19:54:54.588Z,5.60
2023-05-14T20:02:18.705Z,5.75
2023-05-14T20:09:37.210Z,5.80
2023-05-14T20:16:58.128Z,9.27
2023-05-14T20:24:18.048Z,6.28
2023-05-14T20:31:36.294Z,7.30
2023-05-14T20:38:54.546Z,7.43
2023-05-14T20:46:14.289Z,8.30
2023-05-14T20:53:32.613Z,8.30
2023-05-14T21:00:51.330Z,9.52
2023-05-14T21:08:11.337Z,8.40
2023-05-14T21:15:30.797Z,9.60
2023-05-14T21:22:49.014Z,9.32
2023-05-14T21:30:10.428Z,9.82
2023-05-14T21:37:29.098Z,10.00
2023-05-14T21:44:47.572Z,12.15
2023-05-14T21:52:07.764Z,11.52
2023-05-14T21:59:26.045Z,13.13
2023-05-14T22:06:45.778Z,12.70
2023-05-14T22:14:05.507Z,14.30
2023-05-14T22:21:23.980Z,14.55
2023-05-14T22:28:43.252Z,12.43
2023-05-14T22:36:02.987Z,13.07
2023-05-14T22:43:22.119Z,14.48
2023-05-14T22:50:40.469Z,12.88
2023-05-14T22:58:00.374Z,12.15
2023-05-14T23:05:18.960Z,11.43
2023-05-14T23:12:37.501Z,11.80
2023-05-14T23:19:57.559Z,11.70
2023-05-14T23:27:15.922Z,11.93
2023-05-14T23:34:34.912Z,11.65
2023-05-14T23:41:54.829Z,12.27
2023-05-14T23:49:13.805Z,13.52
2023-05-14T23:56:32.288Z,13.23
